createdAt,value
2022-09-11T00:01:09.482Z,83.40
2022-09-11T00:03:36.640Z,83.80
2022-09-11T00:06:08.537Z,84.10
2022-09-11T00:08:35.753Z,84.60
2022-09-11T00:11:11.114Z,85.10
2022-09-11T00:13:40.231Z,85.40
2022-09-11T00:16:17.808Z,85.60
2022-09-11T00:18:46.790Z,85.70
2022-09-11T00:21:13.716Z,85.80
2022-09-11T00:23:40.771Z,85.80
2022-09-11T00:26:07.841Z,85.90
2022-09-11T00:28:34.952Z,85.70
2022-09-11T00:31:12.591Z,85.50
2022-09-11T00:33:40.007Z,85.50
2022-09-11T00:36:12.638Z,85.40
2022-09-11T00:38:39.997Z,85.30
2022-09-11T00:41:13.221Z,85.30
2022-09-11T00:44:12.621Z,85.30
2022-09-11T00:46:48.763Z,85.30
2022-09-11T00:49:32.831Z,85.10
2022-09-11T00:52:08.401Z,84.80
2022-09-11T00:54:41.473Z,84.80
2022-09-11T00:57:09.736Z,84.50
2022-09-11T00:59:41.392Z,84.30
2022-09-11T01:02:12.262Z,83.20
2022-09-11T01:04:51.204Z,82.60
2022-09-11T01:07:19.379Z,82.00
2022-09-11T01:09:47.624Z,81.50
2022-09-11T01:12:29.697Z,81.30
2022-09-11T01:15:06.631Z,81.50
2022-09-11T01:18:06.558Z,81.60
2022-09-11T01:20:51.597Z,81.00
2022-09-11T01:23:31.646Z,80.00
2022-09-11T01:26:27.162Z,79.60
2022-09-11T01:29:17.950Z,79.50
2022-09-11T01:31:58.871Z,78.50
2022-09-11T01:34:45.814Z,77.70
2022-09-11T01:37:35.379Z,78.10
2022-09-11T01:40:10.702Z,77.30
2022-09-11T01:42:43.304Z,77.40
2022-09-11T01:45:14.063Z,77.00
2022-09-11T01:47:43.955Z,77.00
2022-09-11T01:50:15.028Z,77.10
2022-09-11T01:52:58.256Z,76.70
2022-09-11T01:55:35.268Z,76.30
2022-09-11T01:58:15.902Z,76.20
2022-09-11T02:00:49.741Z,76.00
2022-09-11T02:03:22.604Z,76.20
2022-09-11T02:05:54.746Z,75.90
2022-09-11T02:08:36.423Z,76.00
2022-09-11T02:11:07.589Z,75.70
2022-09-11T02:14:21.263Z,75.70
2022-09-11T02:17:12.855Z,75.50
2022-09-11T02:19:41.201Z,75.50
2022-09-11T02:22:08.671Z,75.70
2022-09-11T02:24:37.878Z,75.60
2022-09-11T02:27:09.399Z,75.80
2022-09-11T02:29:37.008Z,76.00
2022-09-11T02:32:04.640Z,76.10
2022-09-11T02:34:35.838Z,76.20
2022-09-11T02:37:29.671Z,76.30
2022-09-11T02:40:07.608Z,76.50
2022-09-11T02:42:36.124Z,76.60
2022-09-11T02:45:28.660Z,76.80
2022-09-11T02:48:15.917Z,77.30
2022-09-11T02:50:48.906Z,77.70
2022-09-11T02:53:27.645Z,77.90
2022-09-11T02:56:12.106Z,77.80
2022-09-11T02:58:59.896Z,78.00
2022-09-11T03:01:31.359Z,78.30
2022-09-11T03:03:59.405Z,78.40
2022-09-11T03:06:28.179Z,78.50
2022-09-11T03:08:55.687Z,78.60
2022-09-11T03:11:22.881Z,78.70
2022-09-11T03:13:50.784Z,78.70
2022-09-11T03:16:18.263Z,78.80
2022-09-11T03:18:45.315Z,78.70
2022-09-11T03:21:12.299Z,78.60
2022-09-11T03:23:39.525Z,78.40
2022-09-11T03:26:07.291Z,78.10
2022-09-11T03:28:34.777Z,78.20
2022-09-11T03:31:07.855Z,78.40
2022-09-11T03:33:35.418Z,78.80
2022-09-11T03:36:03.405Z,79.10
2022-09-11T03:38:30.721Z,79.10
2022-09-11T03:40:58.514Z,79.30
2022-09-11T03:43:25.599Z,79.60
2022-09-11T03:45:52.639Z,79.80
2022-09-11T03:48:19.988Z,79.90
2022-09-11T03:50:47.921Z,79.80
2022-09-11T03:53:15.557Z,79.60
2022-09-11T03:55:44.947Z,79.40
2022-09-11T03:58:12.401Z,79.10
2022-09-11T04:00:44.276Z,79.10
2022-09-11T04:03:12.757Z,79.50
2022-09-11T04:05:46.548Z,79.90
2022-09-11T04:08:14.433Z,80.00
2022-09-11T04:10:44.629Z,80.00
2022-09-11T04:13:12.123Z,80.00
2022-09-11T04:15:39.121Z,79.70
2022-09-11T04:18:07.401Z,79.60
2022-09-11T04:20:38.870Z,79.40
2022-09-11T04:23:06.511Z,79.00
2022-09-11T04:25:34.581Z,78.40
2022-09-11T04:28:04.068Z,78.50
2022-09-11T04:30:31.323Z,78.00
2022-09-11T04:32:59.044Z,77.40
2022-09-11T04:35:26.429Z,77.60
2022-09-11T04:37:56.918Z,77.70
2022-09-11T04:40:23.829Z,77.80
2022-09-11T04:42:51.077Z,77.90
2022-09-11T04:45:19.328Z,77.10
2022-09-11T04:47:46.441Z,77.30
2022-09-11T04:50:13.647Z,77.60
2022-09-11T04:52:45.154Z,78.00
2022-09-11T04:55:12.312Z,77.90
2022-09-11T04:57:39.268Z,77.90
2022-09-11T05:00:07.408Z,78.10
2022-09-11T05:02:36.226Z,78.20
2022-09-11T05:05:04.432Z,78.40
2022-09-11T05:07:32.092Z,78.60
2022-09-11T05:10:01.801Z,78.80
2022-09-11T05:12:31.856Z,78.80
2022-09-11T05:14:59.209Z,78.70
2022-09-11T05:17:26.286Z,78.60
2022-09-11T05:19:53.315Z,78.40
2022-09-11T05:22:23.208Z,78.40
2022-09-11T05:24:54.468Z,78.20
2022-09-11T05:27:22.315Z,78.00
2022-09-11T05:29:49.472Z,77.90
2022-09-11T05:32:16.391Z,77.80
2022-09-11T05:34:44.291Z,77.80
2022-09-11T05:37:14.673Z,77.90
2022-09-11T05:39:45.579Z,78.10
2022-09-11T05:42:15.281Z,78.20
2022-09-11T05:44:47.296Z,78.20
2022-09-11T05:47:15.436Z,78.00
2022-09-11T05:49:45.151Z,78.10
2022-09-11T05:52:12.101Z,78.40
2022-09-11T05:54:39.061Z,78.60
2022-09-11T05:57:07.924Z,78.40
2022-09-11T05:59:37.777Z,78.30
2022-09-11T06:02:05.183Z,78.00
2022-09-11T06:04:40.676Z,77.90
2022-09-11T06:07:08.676Z,77.60
2022-09-11T06:09:38.201Z,77.00
2022-09-11T06:12:05.312Z,76.50
2022-09-11T06:14:32.804Z,76.30
2022-09-11T06:17:01.283Z,75.90
2022-09-11T06:19:31.848Z,75.60
2022-09-11T06:21:59.157Z,75.40
2022-09-11T06:24:37.189Z,75.60
2022-09-11T06:27:05.227Z,75.70
2022-09-11T06:29:34.799Z,75.80
2022-09-11T06:32:03.906Z,75.60
2022-09-11T06:34:32.418Z,74.80
2022-09-11T06:37:04.365Z,75.00
2022-09-11T06:39:31.811Z,74.60
2022-09-11T06:42:00.121Z,75.00
2022-09-11T06:44:31.196Z,75.80
2022-09-11T06:47:00.969Z,76.50
2022-09-11T06:49:28.016Z,76.90
2022-09-11T06:52:13.636Z,77.00
2022-09-11T06:54:47.889Z,76.80
2022-09-11T06:57:16.289Z,76.30
2022-09-11T06:59:43.333Z,76.70
2022-09-11T07:02:10.590Z,77.10
2022-09-11T07:04:38.251Z,77.60
2022-09-11T07:07:06.876Z,77.90
2022-09-11T07:09:35.317Z,78.70
2022-09-11T07:12:02.569Z,78.70
2022-09-11T07:14:31.276Z,78.40
2022-09-11T07:17:08.074Z,78.30
2022-09-11T07:19:35.746Z,78.40
2022-09-11T07:22:03.776Z,78.30
2022-09-11T07:24:33.157Z,78.00
2022-09-11T07:27:00.894Z,77.90
2022-09-11T07:29:35.095Z,78.10
2022-09-11T07:32:02.368Z,78.20
2022-09-11T07:34:29.412Z,78.00
2022-09-11T07:36:58.695Z,77.50
2022-09-11T07:39:27.154Z,77.40
2022-09-11T07:41:59.997Z,77.20
2022-09-11T07:44:30.231Z,77.20
2022-09-11T07:46:57.991Z,77.60
2022-09-11T07:49:26.844Z,77.80
2022-09-11T07:51:54.903Z,77.20
2022-09-11T07:54:32.363Z,76.10
2022-09-11T07:56:59.364Z,74.50
2022-09-11T07:59:27.932Z,72.80
2022-09-11T08:01:55.876Z,70.00
2022-09-11T08:04:24.102Z,68.50
2022-09-11T08:06:51.831Z,67.30
2022-09-11T08:09:27.820Z,65.30
2022-09-11T08:11:58.964Z,64.80
2022-09-11T08:14:27.573Z,63.70
2022-09-11T08:16:58.978Z,63.40
2022-09-11T08:19:28.339Z,63.20
2022-09-11T08:21:59.079Z,62.50
2022-09-11T08:24:27.446Z,61.90
2022-09-11T08:27:00.416Z,61.10
2022-09-11T08:29:29.314Z,61.10
2022-09-11T08:32:00.301Z,61.10
2022-09-11T08:34:29.302Z,60.30
2022-09-11T08:36:56.651Z,60.60
2022-09-11T08:39:25.341Z,60.50
2022-09-11T08:42:12.289Z,60.90
2022-09-11T08:44:41.149Z,59.50
2022-09-11T08:47:24.406Z,59.60
2022-09-11T08:50:03.541Z,59.60
2022-09-11T08:52:33.010Z,60.20
2022-09-11T08:55:01.024Z,60.20
2022-09-11T08:57:43.228Z,60.00
2022-09-11T09:00:22.797Z,57.90
2022-09-11T09:03:09.065Z,58.30
2022-09-11T09:06:04.747Z,59.10
2022-09-11T09:08:38.349Z,57.30
2022-09-11T09:11:40.169Z,57.50
2022-09-11T09:14:25.953Z,57.10
2022-09-11T09:16:55.691Z,56.10
2022-09-11T09:20:09.222Z,55.30
2022-09-11T09:22:48.155Z,55.20
2022-09-11T09:25:22.596Z,56.50
2022-09-11T09:28:06.523Z,55.30
2022-09-11T09:31:03.359Z,56.10
2022-09-11T09:33:42.429Z,57.50
2022-09-11T09:36:16.720Z,55.90
2022-09-11T09:38:45.328Z,55.60
2022-09-11T09:41:15.235Z,55.50
2022-09-11T09:43:45.744Z,55.20
2022-09-11T09:46:42.045Z,55.20
2022-09-11T09:49:24.602Z,54.10
2022-09-11T09:51:54.573Z,54.20
2022-09-11T09:54:24.143Z,54.50
2022-09-11T09:56:58.851Z,53.50
2022-09-11T09:59:42.156Z,52.40
2022-09-11T10:02:09.254Z,51.80
2022-09-11T10:04:36.256Z,52.20
2022-09-11T10:07:11.567Z,52.00
2022-09-11T10:09:46.981Z,52.20
2022-09-11T10:12:26.622Z,51.40
2022-09-11T10:14:59.678Z,52.10
2022-09-11T10:17:30.318Z,52.20
2022-09-11T10:20:26.684Z,51.40
2022-09-11T10:22:55.135Z,52.10
2022-09-11T10:25:27.346Z,52.10
2022-09-11T10:28:15.119Z,51.60
2022-09-11T10:30:55.763Z,50.80
2022-09-11T10:33:30.941Z,51.60
2022-09-11T10:35:59.930Z,51.50
2022-09-11T10:38:45.747Z,51.40
2022-09-11T10:41:13.001Z,51.60
2022-09-11T10:43:48.912Z,52.00
2022-09-11T10:46:18.829Z,51.80
2022-09-11T10:49:04.009Z,52.00
2022-09-11T10:51:33.661Z,51.40
2022-09-11T10:54:29.605Z,51.70
2022-09-11T10:57:29.341Z,51.70
2022-09-11T11:00:08.676Z,49.90
2022-09-11T11:02:40.051Z,49.80
2022-09-11T11:05:38.824Z,50.40
2022-09-11T11:08:21.726Z,49.80
2022-09-11T11:11:07.587Z,49.50
2022-09-11T11:14:13.284Z,49.80
2022-09-11T11:17:02.229Z,49.50
2022-09-11T11:19:51.477Z,47.90
2022-09-11T11:22:45.590Z,48.40
2022-09-11T11:25:51.080Z,49.10
2022-09-11T11:28:43.774Z,49.30
2022-09-11T11:31:52.236Z,49.70
2022-09-11T11:34:29.159Z,49.40
2022-09-11T11:37:29.658Z,49.40
2022-09-11T11:40:23.500Z,49.70
2022-09-11T11:42:56.583Z,49.70
2022-09-11T11:45:32.095Z,50.30
2022-09-11T11:48:14.046Z,50.20
2022-09-11T11:50:44.875Z,49.60
2022-09-11T11:53:36.856Z,49.50
2022-09-11T11:56:25.216Z,49.50
2022-09-11T11:58:55.617Z,49.20
2022-09-11T12:01:38.155Z,49.70
2022-09-11T12:04:19.836Z,49.10
2022-09-11T12:06:46.952Z,48.60
2022-09-11T12:09:17.453Z,49.00
2022-09-11T12:11:49.674Z,49.80
2022-09-11T12:14:50.436Z,49.20
2022-09-11T12:17:27.381Z,49.70
2022-09-11T12:20:09.649Z,48.80
2022-09-11T12:22:44.748Z,49.40
2022-09-11T12:25:23.561Z,47.00
2022-09-11T12:27:53.435Z,47.80
2022-09-11T12:30:24.976Z,48.10
2022-09-11T12:32:54.898Z,48.40
2022-09-11T12:35:45.508Z,48.80
2022-09-11T12:38:44.983Z,48.60
2022-09-11T12:41:25.396Z,48.30
2022-09-11T12:43:54.671Z,48.10
2022-09-11T12:46:21.577Z,48.10
2022-09-11T12:49:23.920Z,49.30
2022-09-11T12:51:56.432Z,49.20
2022-09-11T12:54:31.569Z,49.30
2022-09-11T12:57:05.203Z,47.80
2022-09-11T12:59:35.161Z,48.60
2022-09-11T13:02:04.085Z,48.70
2022-09-11T13:04:33.097Z,48.80
2022-09-11T13:07:07.261Z,48.70
2022-09-11T13:09:49.018Z,48.20
2022-09-11T13:12:21.417Z,47.60
2022-09-11T13:14:56.261Z,47.30
2022-09-11T13:17:30.679Z,47.90
2022-09-11T13:20:21.960Z,48.70
2022-09-11T13:22:56.077Z,49.30
2022-09-11T13:25:28.228Z,48.20
2022-09-11T13:27:59.542Z,46.70
2022-09-11T13:30:27.084Z,47.70
2022-09-11T13:33:19.330Z,47.50
2022-09-11T13:35:46.502Z,47.90
2022-09-11T13:38:23.936Z,47.70
2022-09-11T13:41:00.058Z,47.50
2022-09-11T13:43:46.264Z,47.90
2022-09-11T13:46:15.995Z,48.10
2022-09-11T13:48:49.421Z,48.30
2022-09-11T13:51:29.747Z,48.20
2022-09-11T13:54:33.481Z,48.90
2022-09-11T13:57:00.376Z,48.50
2022-09-11T13:59:56.880Z,48.30
2022-09-11T14:02:40.690Z,48.20
2022-09-11T14:05:14.762Z,47.60
2022-09-11T14:08:04.747Z,48.20
2022-09-11T14:10:31.769Z,48.50
2022-09-11T14:13:14.163Z,48.70
2022-09-11T14:15:47.486Z,48.20
2022-09-11T14:18:25.964Z,48.50
2022-09-11T14:20:55.043Z,48.30
2022-09-11T14:23:27.594Z,49.00
2022-09-11T14:26:14.784Z,49.10
2022-09-11T14:29:00.877Z,48.70
2022-09-11T14:31:35.694Z,48.70
2022-09-11T14:34:26.664Z,48.60
2022-09-11T14:36:58.224Z,49.10
2022-09-11T14:39:50.327Z,49.40
2022-09-11T14:42:21.218Z,50.00
2022-09-11T14:44:48.353Z,49.20
2022-09-11T14:47:19.256Z,49.30
2022-09-11T14:49:47.162Z,48.40
2022-09-11T14:52:16.612Z,48.60
2022-09-11T14:54:44.254Z,48.90
2022-09-11T14:57:20.861Z,48.40
2022-09-11T14:59:48.484Z,48.10
2022-09-11T15:02:19.704Z,48.40
2022-09-11T15:04:47.594Z,49.10
2022-09-11T15:07:16.197Z,49.30
2022-09-11T15:09:43.901Z,47.80
2022-09-11T15:12:12.716Z,47.90
2022-09-11T15:14:58.568Z,47.00
2022-09-11T15:17:30.553Z,47.20
2022-09-11T15:20:00.319Z,47.80
2022-09-11T15:22:27.899Z,47.30
2022-09-11T15:24:56.506Z,47.50
2022-09-11T15:27:25.204Z,48.10
2022-09-11T15:29:53.265Z,48.70
2022-09-11T15:32:21.243Z,48.80
2022-09-11T15:34:48.375Z,48.90
2022-09-11T15:37:18.191Z,48.70
2022-09-11T15:39:45.286Z,49.00
2022-09-11T15:42:13.512Z,48.80
2022-09-11T15:44:40.771Z,48.90
2022-09-11T15:47:08.582Z,49.10
2022-09-11T15:49:41.083Z,49.40
2022-09-11T15:52:08.605Z,48.50
2022-09-11T15:54:35.663Z,48.70
2022-09-11T15:57:02.820Z,49.10
2022-09-11T15:59:29.773Z,48.80
2022-09-11T16:01:56.993Z,49.50
2022-09-11T16:04:27.497Z,50.00
2022-09-11T16:06:55.256Z,49.60
2022-09-11T16:09:25.041Z,49.10
2022-09-11T16:11:54.512Z,49.50
2022-09-11T16:14:27.537Z,49.20
2022-09-11T16:16:56.272Z,49.50
2022-09-11T16:19:27.486Z,50.00
2022-09-11T16:21:59.314Z,50.10
2022-09-11T16:24:28.241Z,50.40
2022-09-11T16:26:56.092Z,50.40
2022-09-11T16:29:25.685Z,49.70
2022-09-11T16:31:52.678Z,49.90
2022-09-11T16:34:19.624Z,49.80
2022-09-11T16:36:46.717Z,50.00
2022-09-11T16:39:19.316Z,50.80
2022-09-11T16:41:46.293Z,50.80
2022-09-11T16:44:14.916Z,50.90
2022-09-11T16:46:42.794Z,51.50
2022-09-11T16:49:15.502Z,51.10
2022-09-11T16:51:43.413Z,51.20
2022-09-11T16:54:10.800Z,50.60
2022-09-11T16:56:39.064Z,50.60
2022-09-11T16:59:08.651Z,50.30
2022-09-11T17:01:37.049Z,50.50
2022-09-11T17:04:04.289Z,50.90
2022-09-11T17:06:32.163Z,51.60
2022-09-11T17:09:01.750Z,52.20
2022-09-11T17:11:31.121Z,52.20
2022-09-11T17:14:00.650Z,52.40
2022-09-11T17:16:32.213Z,52.90
2022-09-11T17:19:01.543Z,53.40
2022-09-11T17:21:30.141Z,53.60
2022-09-11T17:23:58.219Z,53.70
2022-09-11T17:26:25.435Z,54.00
2022-09-11T17:28:52.774Z,54.20
2022-09-11T17:31:20.339Z,54.70
2022-09-11T17:33:48.695Z,55.00
2022-09-11T17:36:19.749Z,55.30
2022-09-11T17:38:49.289Z,55.60
2022-09-11T17:41:16.803Z,56.10
2022-09-11T17:43:44.129Z,56.80
2022-09-11T17:46:17.214Z,57.20
2022-09-11T17:48:46.068Z,57.30
2022-09-11T17:51:16.596Z,57.10
2022-09-11T17:53:46.856Z,57.30
2022-09-11T17:56:19.604Z,57.40
2022-09-11T17:58:52.121Z,57.50
2022-09-11T18:01:21.863Z,57.90
2022-09-11T18:03:56.763Z,58.10
2022-09-11T18:06:28.489Z,58.40
2022-09-11T18:09:01.844Z,58.60
2022-09-11T18:11:30.633Z,58.80
2022-09-11T18:14:00.172Z,59.40
2022-09-11T18:16:27.682Z,59.80
2022-09-11T18:18:55.635Z,60.00
2022-09-11T18:21:22.741Z,59.80
2022-09-11T18:23:50.894Z,59.70
2022-09-11T18:26:25.943Z,60.00
2022-09-11T18:29:02.130Z,60.20
2022-09-11T18:31:32.932Z,60.20
2022-09-11T18:34:01.356Z,60.60
2022-09-11T18:36:30.626Z,61.30
2022-09-11T18:39:01.178Z,61.80
2022-09-11T18:41:31.333Z,61.30
2022-09-11T18:44:00.350Z,61.30
2022-09-11T18:46:27.888Z,60.90
2022-09-11T18:48:55.998Z,61.00
2022-09-11T18:51:23.061Z,61.30
2022-09-11T18:53:53.645Z,61.90
2022-09-11T18:56:28.584Z,62.30
2022-09-11T18:58:56.141Z,62.60
2022-09-11T19:01:25.759Z,62.30
2022-09-11T19:03:53.721Z,62.00
2022-09-11T19:06:24.611Z,62.10
2022-09-11T19:08:52.943Z,62.20
2022-09-11T19:11:25.247Z,62.30
2022-09-11T19:13:54.461Z,62.40
2022-09-11T19:16:22.695Z,62.60
2022-09-11T19:18:49.703Z,62.60
2022-09-11T19:21:20.807Z,62.70
2022-09-11T19:23:57.786Z,62.90
2022-09-11T19:26:30.810Z,63.90
2022-09-11T19:29:00.239Z,63.40
2022-09-11T19:31:29.783Z,63.60
2022-09-11T19:34:00.233Z,63.70
2022-09-11T19:36:29.839Z,63.90
2022-09-11T19:39:00.473Z,64.10
2022-09-11T19:41:32.871Z,64.20
2022-09-11T19:44:02.165Z,64.60
2022-09-11T19:46:30.872Z,64.70
2022-09-11T19:49:00.744Z,65.10
2022-09-11T19:51:30.562Z,65.70
2022-09-11T19:54:00.269Z,65.90
2022-09-11T19:56:28.864Z,66.20
2022-09-11T19:58:56.251Z,66.40
2022-09-11T20:01:24.959Z,66.10
2022-09-11T20:03:53.932Z,66.00
2022-09-11T20:06:23.216Z,65.90
2022-09-11T20:09:02.913Z,65.80
2022-09-11T20:11:38.217Z,66.00
2022-09-11T20:14:05.469Z,66.30
2022-09-11T20:16:32.876Z,66.40
2022-09-11T20:19:09.322Z,66.60
2022-09-11T20:21:36.665Z,66.70
2022-09-11T20:24:06.536Z,66.80
2022-09-11T20:26:34.275Z,66.90
2022-09-11T20:29:11.866Z,67.20
2022-09-11T20:31:48.917Z,67.20
2022-09-11T20:34:17.573Z,67.50
2022-09-11T20:36:45.012Z,67.70
2022-09-11T20:39:13.714Z,67.90
2022-09-11T20:41:41.231Z,68.10
2022-09-11T20:44:08.254Z,68.20
2022-09-11T20:46:35.274Z,68.30
2022-09-11T20:49:03.145Z,68.50
2022-09-11T20:51:31.009Z,68.60
2022-09-11T20:53:58.031Z,68.70
2022-09-11T20:56:25.071Z,68.70
2022-09-11T20:58:52.451Z,68.80
2022-09-11T21:01:22.108Z,69.00
2022-09-11T21:03:54.540Z,69.00
2022-09-11T21:06:26.189Z,69.20
2022-09-11T21:08:55.954Z,69.30
2022-09-11T21:11:24.732Z,69.40
2022-09-11T21:13:51.973Z,69.60
2022-09-11T21:16:20.135Z,69.80
2022-09-11T21:18:53.313Z,70.00
2022-09-11T21:21:21.593Z,70.30
2022-09-11T21:23:49.239Z,70.70
2022-09-11T21:26:17.585Z,71.00
2022-09-11T21:28:44.800Z,71.20
2022-09-11T21:31:12.478Z,71.80
2022-09-11T21:33:40.090Z,71.70
2022-09-11T21:36:07.781Z,71.80
2022-09-11T21:38:35.799Z,71.90
2022-09-11T21:41:04.941Z,72.00
2022-09-11T21:43:31.927Z,72.10
2022-09-11T21:45:58.934Z,72.40
2022-09-11T21:48:26.272Z,72.70
2022-09-11T21:50:53.580Z,72.80
2022-09-11T21:53:21.203Z,73.60
2022-09-11T21:55:51.307Z,73.10
2022-09-11T21:58:20.676Z,73.10
2022-09-11T22:00:49.014Z,73.20
2022-09-11T22:03:18.657Z,73.40
2022-09-11T22:05:47.701Z,73.50
2022-09-11T22:08:17.316Z,73.60
2022-09-11T22:10:46.796Z,73.60
2022-09-11T22:13:13.714Z,73.80
2022-09-11T22:15:41.908Z,74.00
2022-09-11T22:18:09.474Z,74.10
2022-09-11T22:20:41.144Z,74.20
2022-09-11T22:23:08.764Z,74.30
2022-09-11T22:25:36.881Z,74.50
2022-09-11T22:28:04.704Z,74.70
2022-09-11T22:30:32.951Z,74.80
2022-09-11T22:33:00.543Z,74.90
2022-09-11T22:35:27.817Z,75.10
2022-09-11T22:37:54.774Z,75.20
2022-09-11T22:40:21.777Z,75.40
2022-09-11T22:42:49.946Z,74.80
2022-09-11T22:45:17.246Z,75.00
2022-09-11T22:47:44.191Z,75.20
2022-09-11T22:50:11.171Z,75.40
2022-09-11T22:52:38.117Z,75.80
2022-09-11T22:55:06.661Z,76.10
2022-09-11T22:57:38.012Z,77.00
2022-09-11T23:00:09.006Z,76.50
2022-09-11T23:02:36.735Z,76.70
2022-09-11T23:05:26.345Z,77.00
2022-09-11T23:07:54.456Z,77.40
2022-09-11T23:10:23.786Z,77.60
2022-09-11T23:12:54.265Z,77.80
2022-09-11T23:15:21.493Z,77.90
2022-09-11T23:17:48.472Z,78.00
2022-09-11T23:20:15.818Z,78.10
2022-09-11T23:22:42.789Z,78.20
2022-09-11T23:25:11.150Z,78.30
2022-09-11T23:27:38.308Z,78.40
2022-09-11T23:30:06.124Z,78.70
2022-09-11T23:32:33.109Z,78.80
2022-09-11T23:35:00.086Z,78.90
2022-09-11T23:37:27.157Z,78.90
2022-09-11T23:39:54.131Z,79.10
2022-09-11T23:42:21.092Z,79.30
2022-09-11T23:44:48.075Z,79.40
2022-09-11T23:47:15.110Z,79.40
2022-09-11T23:49:43.722Z,79.40
2022-09-11T23:52:10.679Z,79.30
2022-09-11T23:54:37.688Z,79.10
2022-09-11T23:57:05.692Z,78.90
2022-09-11T23:59:35.992Z,79.00
